createdAt,value
2022-08-21T00:01:52.190Z,55.50
2022-08-21T00:04:57.822Z,55.50
2022-08-21T00:07:59.883Z,55.30
2022-08-21T00:11:01.543Z,55.40
2022-08-21T00:14:03.603Z,55.50
2022-08-21T00:17:05.293Z,55.50
2022-08-21T00:20:09.176Z,55.60
2022-08-21T00:23:11.202Z,55.50
2022-08-21T00:26:12.585Z,55.40
2022-08-21T00:29:13.931Z,55.40
2022-08-21T00:32:22.855Z,55.60
2022-08-21T00:35:33.221Z,55.70
2022-08-21T00:38:35.110Z,55.60
2022-08-21T00:41:39.064Z,55.50
2022-08-21T00:44:40.931Z,55.60
2022-08-21T00:47:42.281Z,55.60
2022-08-21T00:50:46.503Z,55.50
2022-08-21T00:53:53.465Z,55.70
2022-08-21T00:56:57.509Z,55.70
2022-08-21T01:00:02.148Z,55.60
2022-08-21T01:03:09.079Z,55.70
2022-08-21T01:06:10.438Z,56.30
2022-08-21T01:09:13.240Z,55.60
2022-08-21T01:12:15.170Z,55.60
2022-08-21T01:15:17.067Z,55.60
2022-08-21T01:18:19.127Z,55.50
2022-08-21T01:21:22.417Z,55.70
2022-08-21T01:24:31.656Z,55.60
2022-08-21T01:27:33.317Z,55.90
2022-08-21T01:30:35.206Z,55.60
2022-08-21T01:33:36.907Z,55.80
2022-08-21T01:36:38.996Z,55.70
2022-08-21T01:39:40.688Z,55.70
2022-08-21T01:42:42.044Z,55.70
2022-08-21T01:45:43.475Z,55.70
2022-08-21T01:48:44.858Z,55.70
2022-08-21T01:51:47.015Z,55.80
2022-08-21T01:54:54.873Z,55.70
2022-08-21T01:58:00.944Z,55.80
2022-08-21T02:01:02.519Z,55.70
2022-08-21T02:04:08.132Z,55.80
2022-08-21T02:07:10.411Z,55.90
2022-08-21T02:10:12.935Z,55.70
2022-08-21T02:13:14.206Z,55.70
2022-08-21T02:16:19.153Z,55.70
2022-08-21T02:19:20.861Z,55.70
2022-08-21T02:22:22.812Z,56.50
2022-08-21T02:25:25.441Z,55.80
2022-08-21T02:28:27.783Z,55.90
2022-08-21T02:31:29.231Z,55.70
2022-08-21T02:34:33.660Z,55.70
2022-08-21T02:37:42.324Z,55.80
2022-08-21T02:40:48.237Z,55.80
2022-08-21T02:43:52.338Z,55.90
2022-08-21T02:46:53.748Z,56.60
2022-08-21T02:49:55.079Z,56.00
2022-08-21T02:52:57.258Z,55.90
2022-08-21T02:55:59.787Z,55.90
2022-08-21T02:59:04.607Z,55.90
2022-08-21T03:02:06.007Z,55.90
2022-08-21T03:05:08.687Z,56.60
2022-08-21T03:08:12.908Z,56.00
2022-08-21T03:11:15.087Z,55.90
2022-08-21T03:14:16.992Z,55.90
2022-08-21T03:17:29.791Z,55.90
2022-08-21T03:20:32.746Z,55.80
2022-08-21T03:23:35.176Z,56.00
2022-08-21T03:26:36.566Z,56.00
2022-08-21T03:29:41.736Z,55.90
2022-08-21T03:32:43.219Z,55.80
2022-08-21T03:35:45.934Z,55.90
2022-08-21T03:38:47.796Z,56.00
2022-08-21T03:41:49.074Z,56.00
2022-08-21T03:44:50.633Z,55.80
2022-08-21T03:47:53.453Z,55.80
2022-08-21T03:50:54.875Z,55.90
2022-08-21T03:53:56.745Z,55.90
2022-08-21T03:56:58.072Z,55.80
2022-08-21T03:59:59.482Z,56.40
2022-08-21T04:03:00.854Z,55.70
2022-08-21T04:06:05.699Z,56.00
2022-08-21T04:09:08.412Z,55.90
2022-08-21T04:12:09.744Z,56.00
2022-08-21T04:15:11.030Z,55.90
2022-08-21T04:18:13.410Z,55.90
2022-08-21T04:21:14.989Z,55.90
2022-08-21T04:24:17.089Z,56.00
2022-08-21T04:27:18.369Z,55.90
2022-08-21T04:30:19.988Z,55.90
2022-08-21T04:33:21.908Z,56.10
2022-08-21T04:36:26.688Z,56.00
2022-08-21T04:39:29.821Z,55.90
2022-08-21T04:42:31.360Z,56.00
2022-08-21T04:45:33.377Z,55.80
2022-08-21T04:48:34.777Z,56.00
2022-08-21T04:51:38.416Z,56.50
2022-08-21T04:54:40.446Z,56.10
2022-08-21T04:57:49.104Z,55.80
2022-08-21T05:00:51.996Z,55.90
2022-08-21T05:03:55.921Z,55.90
2022-08-21T05:06:58.186Z,56.00
2022-08-21T05:10:00.485Z,56.00
2022-08-21T05:13:01.845Z,56.10
2022-08-21T05:16:03.495Z,56.50
2022-08-21T05:19:05.096Z,56.00
2022-08-21T05:22:06.544Z,55.90
2022-08-21T05:25:10.876Z,55.90
2022-08-21T05:28:12.772Z,55.90
2022-08-21T05:31:14.829Z,56.00
2022-08-21T05:34:19.241Z,56.00
2022-08-21T05:37:21.612Z,56.10
2022-08-21T05:40:23.639Z,56.10
2022-08-21T05:43:25.021Z,56.20
2022-08-21T05:46:26.331Z,56.00
2022-08-21T05:49:27.720Z,56.00
2022-08-21T05:52:29.051Z,56.00
2022-08-21T05:55:32.911Z,56.20
2022-08-21T05:58:35.360Z,56.00
2022-08-21T06:01:39.984Z,56.00
2022-08-21T06:04:41.338Z,56.00
2022-08-21T06:07:42.789Z,56.10
2022-08-21T06:10:44.999Z,56.10
2022-08-21T06:13:46.347Z,55.90
2022-08-21T06:16:47.868Z,56.80
2022-08-21T06:19:51.449Z,56.10
2022-08-21T06:22:52.820Z,55.90
2022-08-21T06:25:54.747Z,56.10
2022-08-21T06:28:57.776Z,56.70
2022-08-21T06:31:59.221Z,56.10
2022-08-21T06:35:00.655Z,56.00
2022-08-21T06:38:02.506Z,56.20
2022-08-21T06:41:04.615Z,56.20
2022-08-21T06:44:06.705Z,56.20
2022-08-21T06:47:08.424Z,56.00
2022-08-21T06:50:12.896Z,56.10
2022-08-21T06:53:15.634Z,56.00
2022-08-21T06:56:17.603Z,55.90
2022-08-21T06:59:18.897Z,55.90
2022-08-21T07:02:20.483Z,56.20
2022-08-21T07:05:22.240Z,56.00
2022-08-21T07:08:23.502Z,56.10
2022-08-21T07:11:25.652Z,55.90
2022-08-21T07:14:26.981Z,55.90
2022-08-21T07:17:28.221Z,56.10
2022-08-21T07:20:30.641Z,55.90
2022-08-21T07:23:32.848Z,55.90
2022-08-21T07:26:35.212Z,55.90
2022-08-21T07:29:36.501Z,55.80
2022-08-21T07:32:41.120Z,56.10
2022-08-21T07:35:42.459Z,55.90
2022-08-21T07:38:43.799Z,55.90
2022-08-21T07:41:45.602Z,55.90
2022-08-21T07:44:46.940Z,56.00
2022-08-21T07:47:55.433Z,55.90
2022-08-21T07:50:59.039Z,56.00
2022-08-21T07:54:00.497Z,55.80
2022-08-21T07:57:02.725Z,55.90
2022-08-21T08:00:04.926Z,55.80
2022-08-21T08:03:13.485Z,55.70
2022-08-21T08:06:18.788Z,56.00
2022-08-21T08:09:20.232Z,55.90
2022-08-21T08:12:22.107Z,55.70
2022-08-21T08:15:24.436Z,55.90
2022-08-21T08:18:25.876Z,55.80
2022-08-21T08:21:27.913Z,55.90
2022-08-21T08:24:29.226Z,55.70
2022-08-21T08:27:31.197Z,55.80
2022-08-21T08:30:33.170Z,55.70
2022-08-21T08:33:34.865Z,55.90
2022-08-21T08:36:38.481Z,55.80
2022-08-21T08:39:42.332Z,55.60
2022-08-21T08:42:44.453Z,55.80
2022-08-21T08:45:48.264Z,55.60
2022-08-21T08:48:53.055Z,55.60
2022-08-21T08:51:58.092Z,55.60
2022-08-21T08:55:02.392Z,55.80
2022-08-21T08:58:04.351Z,55.50
2022-08-21T09:01:07.002Z,55.60
2022-08-21T09:04:13.651Z,55.60
2022-08-21T09:07:19.342Z,55.40
2022-08-21T09:10:22.491Z,55.90
2022-08-21T09:13:35.424Z,56.10
2022-08-21T09:16:45.512Z,55.60
2022-08-21T09:19:54.411Z,55.50
2022-08-21T09:23:07.573Z,55.60
2022-08-21T09:26:12.962Z,55.50
2022-08-21T09:29:17.952Z,55.50
2022-08-21T09:32:20.409Z,55.50
2022-08-21T09:35:23.078Z,55.60
2022-08-21T09:38:25.960Z,55.50
2022-08-21T09:41:31.152Z,55.60
2022-08-21T09:44:36.262Z,55.30
2022-08-21T09:47:37.557Z,55.50
2022-08-21T09:50:39.906Z,55.50
2022-08-21T09:53:45.206Z,55.50
2022-08-21T09:57:08.486Z,55.30
2022-08-21T10:00:15.805Z,55.50
2022-08-21T10:03:19.468Z,55.20
2022-08-21T10:06:25.474Z,55.50
2022-08-21T10:09:26.765Z,55.40
2022-08-21T10:12:32.733Z,55.50
2022-08-21T10:15:40.468Z,55.30
2022-08-21T10:18:43.308Z,55.40
2022-08-21T10:21:50.103Z,55.20
2022-08-21T10:24:55.713Z,55.40
2022-08-21T10:28:00.830Z,55.30
2022-08-21T10:31:08.364Z,55.30
2022-08-21T10:34:18.231Z,55.20
2022-08-21T10:37:25.003Z,55.50
2022-08-21T10:40:27.781Z,55.10
2022-08-21T10:43:33.771Z,55.30
2022-08-21T10:46:42.301Z,55.10
2022-08-21T10:49:46.292Z,55.40
2022-08-21T10:52:55.581Z,55.20
2022-08-21T10:56:01.791Z,55.20
2022-08-21T10:59:08.100Z,55.10
2022-08-21T11:02:13.793Z,55.30
2022-08-21T11:05:19.348Z,55.00
2022-08-21T11:08:26.228Z,55.20
2022-08-21T11:11:35.762Z,55.10
2022-08-21T11:14:41.849Z,55.20
2022-08-21T11:17:55.727Z,55.70
2022-08-21T11:21:01.575Z,55.20
2022-08-21T11:24:08.667Z,55.10
2022-08-21T11:27:15.629Z,55.40
2022-08-21T11:30:17.212Z,55.20
2022-08-21T11:33:27.806Z,55.30
2022-08-21T11:36:32.511Z,55.90
2022-08-21T11:39:39.694Z,55.30
2022-08-21T11:42:45.365Z,55.10
2022-08-21T11:45:50.059Z,55.10
2022-08-21T11:48:59.797Z,55.10
2022-08-21T11:52:07.519Z,55.20
2022-08-21T11:55:13.006Z,55.10
2022-08-21T11:58:17.674Z,55.20
2022-08-21T12:01:21.942Z,55.30
2022-08-21T12:04:29.313Z,55.30
2022-08-21T12:07:33.260Z,55.30
2022-08-21T12:10:35.895Z,55.30
2022-08-21T12:13:42.044Z,55.20
2022-08-21T12:16:44.711Z,55.30
2022-08-21T12:19:57.091Z,55.40
2022-08-21T12:23:03.763Z,55.70
2022-08-21T12:26:18.980Z,55.30
2022-08-21T12:29:24.200Z,55.60
2022-08-21T12:32:27.406Z,55.40
2022-08-21T12:35:32.475Z,55.50
2022-08-21T12:38:35.449Z,55.50
2022-08-21T12:41:42.963Z,55.40
2022-08-21T12:44:45.610Z,55.50
2022-08-21T12:47:49.138Z,55.30
2022-08-21T12:50:52.240Z,55.50
2022-08-21T12:53:54.707Z,55.40
2022-08-21T12:56:57.647Z,55.50
2022-08-21T12:59:59.957Z,55.50
2022-08-21T13:03:01.278Z,55.50
2022-08-21T13:06:04.642Z,55.70
2022-08-21T13:09:07.915Z,55.50
2022-08-21T13:12:09.327Z,55.50
2022-08-21T13:15:11.545Z,55.50
2022-08-21T13:18:22.696Z,55.60
2022-08-21T13:21:28.585Z,55.50
2022-08-21T13:24:46.189Z,55.60
2022-08-21T13:27:57.806Z,55.60
2022-08-21T13:31:01.806Z,55.50
2022-08-21T13:34:04.354Z,55.60
2022-08-21T13:37:08.014Z,55.90
2022-08-21T13:40:11.301Z,55.70
2022-08-21T13:43:18.337Z,55.70
2022-08-21T13:46:24.677Z,55.70
2022-08-21T13:49:28.674Z,55.70
2022-08-21T13:52:30.522Z,55.90
2022-08-21T13:55:36.746Z,55.70
2022-08-21T13:58:42.916Z,55.80
2022-08-21T14:01:53.099Z,55.80
2022-08-21T14:04:55.611Z,55.80
2022-08-21T14:08:00.281Z,56.00
2022-08-21T14:11:03.340Z,56.00
2022-08-21T14:14:09.090Z,55.90
2022-08-21T14:17:24.344Z,56.00
2022-08-21T14:20:29.743Z,55.90
2022-08-21T14:23:31.591Z,56.10
2022-08-21T14:26:34.630Z,56.10
2022-08-21T14:29:37.268Z,56.00
2022-08-21T14:32:44.785Z,56.20
2022-08-21T14:35:47.407Z,56.10
2022-08-21T14:38:49.317Z,56.00
2022-08-21T14:41:52.099Z,56.20
2022-08-21T14:44:55.066Z,56.10
2022-08-21T14:47:56.427Z,56.10
2022-08-21T14:51:00.517Z,56.20
2022-08-21T14:54:06.936Z,56.30
2022-08-21T14:57:12.252Z,56.50
2022-08-21T15:00:16.857Z,56.30
2022-08-21T15:03:19.015Z,56.40
2022-08-21T15:06:21.176Z,56.30
2022-08-21T15:09:23.944Z,56.20
2022-08-21T15:12:25.629Z,56.40
2022-08-21T15:15:27.075Z,56.50
2022-08-21T15:18:29.613Z,56.30
2022-08-21T15:21:31.086Z,56.60
2022-08-21T15:24:33.103Z,56.30
2022-08-21T15:27:34.976Z,56.50
2022-08-21T15:30:37.203Z,56.70
2022-08-21T15:33:38.632Z,56.50
2022-08-21T15:36:40.362Z,56.50
2022-08-21T15:39:42.237Z,56.60
2022-08-21T15:42:44.841Z,56.50
2022-08-21T15:45:46.295Z,56.60
2022-08-21T15:48:47.672Z,56.80
2022-08-21T15:51:49.110Z,56.60
2022-08-21T15:54:51.643Z,56.70
2022-08-21T15:57:57.185Z,56.90
2022-08-21T16:01:00.408Z,56.80
2022-08-21T16:04:02.462Z,56.80
2022-08-21T16:07:09.008Z,56.90
2022-08-21T16:10:12.327Z,56.80
2022-08-21T16:13:16.888Z,56.80
2022-08-21T16:16:19.382Z,56.80
2022-08-21T16:19:21.149Z,56.80
2022-08-21T16:22:22.608Z,56.80
2022-08-21T16:25:24.646Z,56.90
2022-08-21T16:28:26.086Z,56.90
2022-08-21T16:31:28.558Z,57.00
2022-08-21T16:34:30.677Z,57.00
2022-08-21T16:37:32.065Z,56.90
2022-08-21T16:40:35.372Z,57.10
2022-08-21T16:43:38.569Z,57.20
2022-08-21T16:46:40.808Z,57.00
2022-08-21T16:49:43.265Z,57.10
2022-08-21T16:52:44.524Z,57.10
2022-08-21T16:55:46.833Z,57.10
2022-08-21T16:58:48.929Z,57.00
2022-08-21T17:01:51.523Z,57.00
2022-08-21T17:04:53.083Z,57.10
2022-08-21T17:07:54.437Z,57.20
2022-08-21T17:10:57.557Z,57.20
2022-08-21T17:14:00.319Z,57.30
2022-08-21T17:17:07.641Z,57.10
2022-08-21T17:20:09.364Z,57.30
2022-08-21T17:23:10.850Z,57.30
2022-08-21T17:26:13.462Z,57.20
2022-08-21T17:29:15.545Z,57.30
2022-08-21T17:32:17.710Z,57.20
2022-08-21T17:35:22.413Z,57.50
2022-08-21T17:38:23.800Z,57.40
2022-08-21T17:41:29.835Z,57.70
2022-08-21T17:44:31.232Z,57.30
2022-08-21T17:47:32.604Z,57.50
2022-08-21T17:50:34.588Z,57.40
2022-08-21T17:53:35.929Z,57.40
2022-08-21T17:56:39.743Z,57.50
2022-08-21T17:59:41.127Z,57.60
2022-08-21T18:02:43.457Z,57.50
2022-08-21T18:05:49.096Z,57.40
2022-08-21T18:08:50.501Z,57.40
2022-08-21T18:11:52.488Z,57.50
2022-08-21T18:14:53.970Z,57.40
2022-08-21T18:17:58.399Z,57.50
2022-08-21T18:20:59.737Z,57.40
2022-08-21T18:24:00.996Z,57.60
2022-08-21T18:27:03.074Z,57.50
2022-08-21T18:30:04.994Z,57.60
2022-08-21T18:33:07.054Z,57.50
2022-08-21T18:36:08.606Z,57.60
2022-08-21T18:39:34.905Z,57.70
2022-08-21T18:42:36.413Z,57.80
2022-08-21T18:45:38.303Z,57.60
2022-08-21T18:48:40.974Z,57.80
2022-08-21T18:51:45.492Z,57.80
2022-08-21T18:54:46.932Z,57.80
2022-08-21T18:57:52.445Z,57.80
2022-08-21T19:00:54.721Z,57.90
2022-08-21T19:03:56.232Z,58.20
2022-08-21T19:06:58.001Z,57.80
2022-08-21T19:10:23.083Z,57.90
2022-08-21T19:13:21.910Z,58.00
2022-08-21T19:16:23.318Z,57.90
2022-08-21T19:19:25.323Z,57.70
2022-08-21T19:22:26.610Z,57.90
2022-08-21T19:25:33.613Z,57.90
2022-08-21T19:28:38.420Z,57.90
2022-08-21T19:31:40.928Z,58.10
2022-08-21T19:34:42.288Z,57.80
2022-08-21T19:37:43.712Z,57.90
2022-08-21T19:40:45.067Z,58.10
2022-08-21T19:43:50.037Z,58.00
2022-08-21T19:46:51.987Z,58.10
2022-08-21T19:49:56.157Z,58.10
2022-08-21T19:52:57.592Z,58.10
2022-08-21T19:55:59.047Z,58.10
2022-08-21T19:59:03.917Z,58.10
2022-08-21T20:02:08.466Z,58.20
2022-08-21T20:05:10.020Z,58.10
2022-08-21T20:11:38.055Z,58.10
2022-08-21T20:14:42.415Z,58.30
2022-08-21T20:17:43.745Z,58.30
2022-08-21T20:20:46.008Z,58.10
2022-08-21T20:23:48.871Z,58.20
2022-08-21T20:26:50.663Z,58.30
2022-08-21T20:29:52.537Z,58.20
2022-08-21T20:32:54.044Z,58.30
2022-08-21T20:35:57.122Z,58.30
2022-08-21T20:38:58.594Z,58.40
2022-08-21T20:41:59.914Z,58.40
2022-08-21T20:45:04.083Z,58.30
2022-08-21T20:48:11.923Z,58.20
2022-08-21T20:51:20.352Z,58.40
2022-08-21T20:54:25.228Z,58.50
2022-08-21T20:57:30.880Z,58.60
2022-08-21T21:00:34.322Z,58.50
2022-08-21T21:03:37.513Z,58.60
2022-08-21T21:06:43.630Z,58.60
2022-08-21T21:09:54.517Z,58.70
2022-08-21T21:12:58.515Z,58.60
2022-08-21T21:16:04.129Z,58.70
2022-08-21T21:19:10.993Z,58.70
2022-08-21T21:22:13.598Z,58.80
2022-08-21T21:25:17.159Z,58.60
2022-08-21T21:28:20.928Z,59.00
2022-08-21T21:31:23.617Z,59.00
2022-08-21T21:34:27.923Z,58.80
2022-08-21T21:37:31.257Z,58.90
2022-08-21T21:40:39.402Z,58.80
2022-08-21T21:43:49.296Z,58.90
2022-08-21T21:46:54.649Z,59.00
2022-08-21T21:50:01.803Z,58.80
2022-08-21T21:53:12.481Z,58.90
2022-08-21T21:56:40.411Z,58.90
2022-08-21T21:59:50.445Z,58.90
2022-08-21T22:02:58.229Z,59.00
2022-08-21T22:06:03.577Z,59.00
2022-08-21T22:09:10.573Z,59.00
2022-08-21T22:12:22.299Z,59.00
2022-08-21T22:15:26.437Z,58.90
2022-08-21T22:18:31.492Z,59.00
2022-08-21T22:21:33.832Z,58.90
2022-08-21T22:24:39.453Z,59.20
2022-08-21T22:27:40.968Z,59.10
2022-08-21T22:30:45.210Z,59.20
2022-08-21T22:33:59.121Z,59.10
2022-08-21T22:37:02.551Z,59.10
2022-08-21T22:40:04.460Z,59.20
2022-08-21T22:43:07.736Z,59.30
2022-08-21T22:46:09.739Z,59.20
2022-08-21T22:49:20.919Z,59.30
2022-08-21T22:52:28.309Z,59.10
2022-08-21T22:55:37.319Z,59.30
2022-08-21T22:58:40.912Z,59.20
2022-08-21T23:01:45.626Z,59.40
2022-08-21T23:04:51.288Z,59.30
2022-08-21T23:07:55.635Z,59.30
2022-08-21T23:10:59.278Z,59.40
2022-08-21T23:14:01.707Z,59.20
2022-08-21T23:17:10.387Z,59.30
2022-08-21T23:20:19.986Z,59.40
2022-08-21T23:23:22.708Z,59.30
2022-08-21T23:26:26.416Z,59.40
2022-08-21T23:29:31.816Z,59.30
2022-08-21T23:32:44.592Z,59.40
2022-08-21T23:36:05.965Z,59.50
2022-08-21T23:39:14.005Z,59.50
2022-08-21T23:42:21.194Z,59.30
2022-08-21T23:45:36.679Z,59.50
2022-08-21T23:48:42.543Z,59.50
2022-08-21T23:51:47.613Z,59.60
2022-08-21T23:54:59.142Z,59.60
2022-08-21T23:58:06.283Z,59.50
